createdAt,value
2023-03-21T00:00:48.231Z,13.70
2023-03-21T00:03:16.248Z,14.05
2023-03-21T00:05:49.613Z,8.40
2023-03-21T00:08:16.198Z,12.43
2023-03-21T00:10:43.890Z,14.82
2023-03-21T00:13:15.398Z,16.10
2023-03-21T00:16:06.162Z,9.95
2023-03-21T00:18:46.565Z,12.23
2023-03-21T00:21:39.534Z,15.57
2023-03-21T00:24:02.624Z,19.83
2023-03-21T00:26:29.292Z,12.73
2023-03-21T00:28:55.740Z,12.75
2023-03-21T00:31:22.152Z,11.45
2023-03-21T00:33:48.562Z,10.15
2023-03-21T00:36:15.851Z,12.02
2023-03-21T00:38:42.681Z,15.60
2023-03-21T00:41:23.276Z,11.00
2023-03-21T00:43:55.325Z,12.95
2023-03-21T00:46:23.272Z,10.80
2023-03-21T00:48:49.928Z,11.60
2023-03-21T00:51:25.892Z,12.75
2023-03-21T00:53:57.132Z,12.23
2023-03-21T00:56:23.641Z,15.95
2023-03-21T00:58:51.107Z,11.63
2023-03-21T01:01:18.333Z,13.82
2023-03-21T01:03:50.719Z,12.10
2023-03-21T01:06:22.145Z,10.75
2023-03-21T01:08:52.642Z,14.93
2023-03-21T01:11:22.992Z,8.52
2023-03-21T01:14:20.956Z,15.00
2023-03-21T01:16:37.625Z,8.90
2023-03-21T01:19:11.869Z,11.60
2023-03-21T01:21:41.262Z,13.23
2023-03-21T01:24:08.043Z,11.13
2023-03-21T01:26:34.496Z,15.82
2023-03-21T01:29:00.925Z,16.05
2023-03-21T01:31:27.380Z,17.17
2023-03-21T01:33:53.792Z,10.48
2023-03-21T01:36:24.313Z,11.45
2023-03-21T01:38:52.243Z,14.05
2023-03-21T01:41:26.200Z,20.00
2023-03-21T01:43:55.308Z,16.25
2023-03-21T01:46:54.476Z,21.05
2023-03-21T01:49:28.650Z,16.50
2023-03-21T01:52:11.539Z,17.70
2023-03-21T01:54:43.001Z,13.73
2023-03-21T01:57:13.809Z,14.13
2023-03-21T01:59:54.483Z,19.73
2023-03-21T02:02:28.368Z,15.15
2023-03-21T02:04:58.132Z,18.95
2023-03-21T02:07:29.759Z,19.42
2023-03-21T02:09:57.914Z,16.48
2023-03-21T02:12:26.542Z,16.23
2023-03-21T02:14:53.544Z,22.67
2023-03-21T02:17:59.497Z,19.83
2023-03-21T02:20:52.319Z,19.35
2023-03-21T02:23:30.477Z,19.73
2023-03-21T02:26:15.624Z,21.05
2023-03-21T02:28:47.664Z,19.15
2023-03-21T02:32:09.291Z,18.02
2023-03-21T02:34:46.273Z,22.52
2023-03-21T02:37:42.919Z,20.52
2023-03-21T02:40:30.763Z,22.40
2023-03-21T02:43:23.366Z,22.63
2023-03-21T02:46:28.298Z,23.83
2023-03-21T02:49:38.522Z,23.60
2023-03-21T02:52:17.073Z,26.20
2023-03-21T02:54:49.436Z,24.83
2023-03-21T02:57:19.324Z,33.65
2023-03-21T02:59:55.553Z,28.33
2023-03-21T03:02:27.099Z,26.67
2023-03-21T03:04:53.661Z,30.65
2023-03-21T03:07:41.489Z,24.15
2023-03-21T03:10:31.401Z,30.15
2023-03-21T03:13:18.605Z,31.48
2023-03-21T03:15:57.249Z,30.42
2023-03-21T03:18:23.964Z,28.45
2023-03-21T03:21:15.536Z,38.00
2023-03-21T03:23:54.052Z,39.50
2023-03-21T03:26:41.025Z,39.15
2023-03-21T03:29:12.146Z,38.40
2023-03-21T03:31:48.958Z,35.95
2023-03-21T03:34:21.111Z,37.78
2023-03-21T03:36:56.096Z,46.63
2023-03-21T03:39:35.590Z,46.78
2023-03-21T03:42:21.756Z,40.97
2023-03-21T03:44:54.120Z,43.08
2023-03-21T03:47:35.062Z,43.42
2023-03-21T03:50:13.330Z,43.42
2023-03-21T03:52:56.233Z,41.40
2023-03-21T03:55:27.045Z,49.55
2023-03-21T03:57:54.868Z,41.70
2023-03-21T04:00:21.438Z,40.53
2023-03-21T04:02:47.926Z,50.70
2023-03-21T04:05:14.474Z,42.50
2023-03-21T04:07:41.288Z,46.75
2023-03-21T04:10:08.145Z,55.25
2023-03-21T04:12:34.554Z,46.47
2023-03-21T04:15:09.945Z,48.47
2023-03-21T04:17:38.347Z,47.58
2023-03-21T04:20:12.346Z,45.95
2023-03-21T04:22:41.909Z,44.03
2023-03-21T04:25:09.150Z,47.03
2023-03-21T04:27:35.681Z,51.50
2023-03-21T04:30:03.417Z,50.83
2023-03-21T04:32:33.781Z,51.30
2023-03-21T04:35:00.802Z,48.13
2023-03-21T04:37:27.926Z,51.35
2023-03-21T04:39:54.801Z,53.63
2023-03-21T04:42:21.414Z,50.25
2023-03-21T04:44:48.900Z,45.75
2023-03-21T04:47:16.311Z,52.00
2023-03-21T04:49:43.485Z,53.22
2023-03-21T04:52:09.896Z,56.83
2023-03-21T04:54:36.866Z,53.80
2023-03-21T04:57:04.564Z,55.88
2023-03-21T04:59:31.576Z,51.03
2023-03-21T05:01:58.610Z,54.20
2023-03-21T05:04:27.227Z,51.60
2023-03-21T05:06:54.985Z,55.35
2023-03-21T05:09:22.258Z,56.80
2023-03-21T05:11:49.319Z,58.38
2023-03-21T05:14:19.128Z,57.05
2023-03-21T05:16:53.128Z,58.60
2023-03-21T05:19:22.708Z,57.60
2023-03-21T05:21:49.953Z,56.55
2023-03-21T05:24:19.917Z,52.83
2023-03-21T05:26:50.394Z,51.97
2023-03-21T05:29:18.731Z,57.87
2023-03-21T05:31:46.178Z,64.07
2023-03-21T05:34:13.821Z,56.78
2023-03-21T05:36:40.276Z,57.67
2023-03-21T05:39:06.938Z,56.72
2023-03-21T05:41:33.420Z,54.00
2023-03-21T05:44:00.722Z,60.13
2023-03-21T05:46:27.265Z,59.22
2023-03-21T05:48:53.757Z,58.88
2023-03-21T05:51:20.148Z,55.92
2023-03-21T05:53:46.639Z,55.55
2023-03-21T05:56:13.065Z,55.42
2023-03-21T05:58:39.504Z,55.42
2023-03-21T06:01:06.331Z,55.00
2023-03-21T06:03:32.900Z,53.45
2023-03-21T06:05:59.496Z,56.33
2023-03-21T06:08:25.905Z,65.13
2023-03-21T06:10:52.455Z,54.90
2023-03-21T06:13:18.861Z,53.00
2023-03-21T06:15:45.347Z,57.22
2023-03-21T06:18:11.749Z,54.70
2023-03-21T06:20:38.258Z,58.58
2023-03-21T06:23:04.677Z,58.67
2023-03-21T06:25:31.168Z,61.33
2023-03-21T06:27:57.592Z,66.00
2023-03-21T06:30:24.042Z,69.40
2023-03-21T06:32:50.723Z,62.78
2023-03-21T06:35:17.190Z,56.03
2023-03-21T06:37:45.391Z,56.05
2023-03-21T06:40:13.656Z,58.10
2023-03-21T06:42:40.277Z,59.08
2023-03-21T06:45:07.141Z,58.95
2023-03-21T06:47:33.617Z,57.95
2023-03-21T06:50:00.025Z,54.00
2023-03-21T06:52:26.394Z,57.25
2023-03-21T06:54:52.869Z,63.13
2023-03-21T06:57:21.761Z,54.33
2023-03-21T06:59:48.184Z,60.88
2023-03-21T07:02:15.130Z,55.65
2023-03-21T07:04:41.710Z,55.05
2023-03-21T07:07:08.194Z,57.95
2023-03-21T07:09:34.839Z,61.00
2023-03-21T07:12:01.345Z,58.00
2023-03-21T07:14:28.009Z,54.38
2023-03-21T07:16:54.507Z,60.35
2023-03-21T07:19:20.908Z,64.75
2023-03-21T07:21:47.340Z,57.25
2023-03-21T07:24:13.788Z,64.05
2023-03-21T07:26:40.294Z,59.75
2023-03-21T07:29:06.776Z,55.88
2023-03-21T07:31:33.372Z,53.55
2023-03-21T07:33:59.809Z,60.55
2023-03-21T07:36:26.453Z,56.55
2023-03-21T07:38:52.901Z,55.70
2023-03-21T07:41:19.348Z,62.58
2023-03-21T07:43:45.882Z,64.30
2023-03-21T07:46:12.384Z,66.70
2023-03-21T07:48:39.049Z,64.32
2023-03-21T07:51:06.429Z,66.45
2023-03-21T07:53:33.148Z,63.15
2023-03-21T07:55:59.544Z,67.75
2023-03-21T07:58:27.160Z,65.10
2023-03-21T08:00:55.406Z,69.22
2023-03-21T08:03:23.750Z,64.68
2023-03-21T08:05:50.607Z,61.45
2023-03-21T08:08:17.072Z,64.60
2023-03-21T08:10:44.383Z,60.92
2023-03-21T08:13:10.981Z,62.95
2023-03-21T08:15:38.155Z,58.92
2023-03-21T08:18:04.864Z,62.15
2023-03-21T08:20:31.328Z,64.25
2023-03-21T08:22:57.786Z,64.95
2023-03-21T08:25:24.236Z,59.75
2023-03-21T08:27:51.678Z,61.03
2023-03-21T08:30:21.850Z,52.22
2023-03-21T08:32:49.158Z,56.33
2023-03-21T08:35:18.179Z,56.13
2023-03-21T08:37:44.946Z,55.42
2023-03-21T08:40:15.606Z,55.00
2023-03-21T08:42:42.496Z,61.85
2023-03-21T08:45:10.957Z,55.42
2023-03-21T08:47:37.492Z,53.13
2023-03-21T08:50:09.385Z,52.30
2023-03-21T08:52:35.904Z,52.15
2023-03-21T08:55:02.692Z,57.03
2023-03-21T08:57:29.961Z,49.10
2023-03-21T08:59:56.964Z,52.78
2023-03-21T09:02:23.724Z,51.42
2023-03-21T09:04:53.044Z,46.72
2023-03-21T09:07:20.063Z,49.17
2023-03-21T09:09:53.454Z,52.35
2023-03-21T09:12:24.617Z,49.95
2023-03-21T09:14:53.064Z,49.22
2023-03-21T09:17:21.212Z,49.08
2023-03-21T09:19:49.261Z,44.55
2023-03-21T09:22:17.319Z,46.47
2023-03-21T09:24:47.530Z,47.03
2023-03-21T09:27:15.739Z,50.58
2023-03-21T09:29:44.659Z,47.30
2023-03-21T09:32:13.329Z,47.03
2023-03-21T09:34:41.118Z,46.42
2023-03-21T09:37:13.117Z,43.15
2023-03-21T09:39:44.719Z,44.10
2023-03-21T09:42:20.659Z,44.22
2023-03-21T09:45:07.590Z,45.40
2023-03-21T09:47:49.453Z,45.28
2023-03-21T09:50:31.923Z,39.38
2023-03-21T09:53:06.029Z,44.50
2023-03-21T09:55:40.927Z,40.70
2023-03-21T09:58:29.720Z,47.20
2023-03-21T10:01:05.242Z,40.88
2023-03-21T10:03:36.837Z,36.50
2023-03-21T10:06:13.147Z,35.78
2023-03-21T10:08:41.848Z,37.03
2023-03-21T10:11:22.582Z,35.65
2023-03-21T10:13:59.942Z,36.28
2023-03-21T10:16:36.705Z,37.78
2023-03-21T10:19:10.304Z,36.38
2023-03-21T10:24:28.465Z,31.73
2023-03-21T10:26:56.226Z,36.30
2023-03-21T10:29:29.224Z,32.85
2023-03-21T10:31:56.200Z,32.78
2023-03-21T10:34:37.490Z,36.10
2023-03-21T10:37:05.584Z,40.22
2023-03-21T10:39:43.557Z,31.63
2023-03-21T10:42:19.455Z,31.75
2023-03-21T10:44:49.237Z,39.00
2023-03-21T10:47:25.487Z,36.30
2023-03-21T10:50:09.640Z,37.50
2023-03-21T10:52:45.503Z,36.13
2023-03-21T10:55:28.764Z,38.42
2023-03-21T10:57:59.993Z,38.20
2023-03-21T11:00:33.581Z,37.40
2023-03-21T11:03:00.499Z,38.25
2023-03-21T11:05:35.016Z,38.45
2023-03-21T11:08:18.772Z,38.55
2023-03-21T11:10:55.216Z,39.17
2023-03-21T11:13:32.682Z,41.28
2023-03-21T11:16:07.103Z,41.75
2023-03-21T11:18:39.084Z,43.78
2023-03-21T11:21:08.575Z,41.10
2023-03-21T11:23:41.190Z,45.67
2023-03-21T11:26:17.460Z,43.08
2023-03-21T11:28:45.971Z,38.92
2023-03-21T11:31:12.840Z,39.90
2023-03-21T11:33:45.903Z,38.08
2023-03-21T11:36:18.551Z,35.75
2023-03-21T11:38:50.805Z,32.95
2023-03-21T11:41:25.588Z,41.83
2023-03-21T11:43:54.010Z,35.80
2023-03-21T11:46:29.078Z,36.40
2023-03-21T11:48:57.372Z,35.58
2023-03-21T11:51:53.901Z,34.63
2023-03-21T11:54:35.781Z,35.33
2023-03-21T11:59:56.751Z,34.08
2023-03-21T12:02:41.406Z,32.05
2023-03-21T12:05:19.146Z,39.58
2023-03-21T12:07:59.313Z,34.47
2023-03-21T12:10:43.236Z,39.30
2023-03-21T12:13:21.520Z,33.20
2023-03-21T12:16:04.045Z,43.10
2023-03-21T12:18:53.921Z,34.22
2023-03-21T12:21:29.175Z,31.73
2023-03-21T12:24:20.180Z,26.08
2023-03-21T12:27:02.847Z,27.95
2023-03-21T12:30:03.224Z,28.95
2023-03-21T12:32:54.455Z,32.55
2023-03-21T12:35:29.773Z,30.05
2023-03-21T12:38:15.902Z,30.10
2023-03-21T12:41:10.293Z,36.70
2023-03-21T12:43:58.482Z,34.15
2023-03-21T12:46:37.179Z,29.20
2023-03-21T12:49:13.804Z,26.85
2023-03-21T12:51:44.071Z,31.20
2023-03-21T12:54:23.471Z,29.20
2023-03-21T12:56:57.227Z,26.75
2023-03-21T12:59:38.889Z,28.92
2023-03-21T13:02:17.378Z,28.83
2023-03-21T13:05:00.176Z,27.58
2023-03-21T13:07:31.809Z,28.00
2023-03-21T13:09:59.433Z,29.33
2023-03-21T13:12:41.755Z,29.08
2023-03-21T13:15:24.878Z,30.17
2023-03-21T13:18:01.999Z,32.47
2023-03-21T13:20:46.233Z,34.08
2023-03-21T13:23:13.856Z,32.65
2023-03-21T13:25:47.443Z,27.95
2023-03-21T13:28:28.266Z,26.40
2023-03-21T13:31:16.737Z,28.13
2023-03-21T13:33:46.704Z,23.88
2023-03-21T13:36:16.080Z,27.65
2023-03-21T13:38:50.232Z,25.15
2023-03-21T13:41:28.376Z,24.88
2023-03-21T13:43:57.500Z,26.17
2023-03-21T13:46:26.869Z,28.77
2023-03-21T13:48:58.922Z,25.95
2023-03-21T13:51:28.902Z,31.70
2023-03-21T13:54:11.428Z,28.77
2023-03-21T13:56:46.991Z,27.67
2023-03-21T13:59:17.347Z,26.83
2023-03-21T14:02:19.296Z,29.15
2023-03-21T14:05:04.253Z,28.45
2023-03-21T14:07:36.695Z,26.30
2023-03-21T14:10:08.568Z,29.60
2023-03-21T14:12:40.738Z,25.98
2023-03-21T14:15:26.197Z,30.45
2023-03-21T14:17:56.955Z,30.75
2023-03-21T14:20:29.148Z,27.20
2023-03-21T14:22:55.763Z,25.58
2023-03-21T14:25:29.250Z,24.48
2023-03-21T14:28:01.471Z,21.85
2023-03-21T14:30:32.858Z,22.42
2023-03-21T14:33:04.851Z,24.63
2023-03-21T14:35:32.363Z,20.58
2023-03-21T14:38:05.632Z,19.38
2023-03-21T14:40:32.036Z,16.98
2023-03-21T14:43:05.044Z,16.98
2023-03-21T14:45:33.767Z,18.02
2023-03-21T14:48:08.220Z,18.02
2023-03-21T14:50:40.841Z,17.48
2023-03-21T14:53:14.491Z,20.25
2023-03-21T14:55:44.835Z,19.63
2023-03-21T14:58:14.285Z,18.80
2023-03-21T15:00:40.827Z,17.35
2023-03-21T15:03:07.620Z,18.45
2023-03-21T15:05:38.442Z,18.25
2023-03-21T15:08:14.770Z,16.38
2023-03-21T15:10:41.764Z,24.30
2023-03-21T15:13:18.551Z,22.13
2023-03-21T15:15:45.631Z,24.65
2023-03-21T15:18:17.375Z,22.88
2023-03-21T15:23:19.929Z,18.33
2023-03-21T15:25:46.414Z,18.10
2023-03-21T15:28:14.244Z,19.30
2023-03-21T15:30:48.190Z,17.80
2023-03-21T15:33:15.249Z,23.00
2023-03-21T15:35:48.235Z,16.85
2023-03-21T15:38:36.294Z,18.13
2023-03-21T15:41:21.160Z,20.77
2023-03-21T15:43:59.938Z,16.88
2023-03-21T15:46:48.250Z,18.23
2023-03-21T15:49:14.746Z,18.88
2023-03-21T15:51:43.433Z,16.77
2023-03-21T15:54:27.109Z,18.20
2023-03-21T15:56:56.438Z,18.95
2023-03-21T15:59:26.729Z,25.13
2023-03-21T16:01:53.288Z,20.48
2023-03-21T16:04:20.340Z,18.85
2023-03-21T16:07:14.437Z,17.23
2023-03-21T16:09:44.659Z,19.90
2023-03-21T16:12:13.940Z,22.17
2023-03-21T16:14:42.557Z,21.13
2023-03-21T16:17:33.158Z,19.52
2023-03-21T16:20:00.735Z,20.10
2023-03-21T16:22:34.852Z,17.63
2023-03-21T16:25:01.326Z,19.10
2023-03-21T16:27:28.472Z,16.85
2023-03-21T16:29:54.861Z,17.60
2023-03-21T16:32:21.311Z,14.82
2023-03-21T16:34:48.348Z,17.05
2023-03-21T16:37:16.054Z,21.17
2023-03-21T16:39:43.013Z,17.65
2023-03-21T16:42:11.885Z,17.55
2023-03-21T16:44:39.530Z,17.63
2023-03-21T16:47:17.166Z,15.48
2023-03-21T16:49:44.157Z,16.38
2023-03-21T16:52:12.488Z,16.20
2023-03-21T16:54:40.241Z,18.50
2023-03-21T16:57:15.612Z,18.38
2023-03-21T16:59:42.732Z,19.55
2023-03-21T17:02:14.534Z,20.08
2023-03-21T17:04:41.036Z,41.03
2023-03-21T17:07:14.138Z,47.78
2023-03-21T17:09:43.645Z,32.22
2023-03-21T17:12:13.635Z,22.42
2023-03-21T17:14:41.887Z,22.25
2023-03-21T17:17:16.273Z,22.10
2023-03-21T17:19:43.155Z,20.92
2023-03-21T17:22:11.891Z,21.02
2023-03-21T17:24:39.725Z,21.27
2023-03-21T17:27:08.297Z,32.13
2023-03-21T17:29:34.782Z,28.95
2023-03-21T17:32:01.246Z,40.42
2023-03-21T17:34:27.681Z,36.90
2023-03-21T17:36:54.556Z,23.85
2023-03-21T17:39:24.195Z,19.85
2023-03-21T17:41:52.016Z,20.88
2023-03-21T17:44:19.864Z,18.70
2023-03-21T17:46:46.836Z,21.40
2023-03-21T17:49:15.741Z,19.85
2023-03-21T17:51:43.087Z,22.13
2023-03-21T17:54:10.061Z,25.17
2023-03-21T17:56:41.557Z,20.27
2023-03-21T17:59:12.520Z,23.60
2023-03-21T18:01:38.990Z,26.63
2023-03-21T18:04:05.738Z,25.38
2023-03-21T18:06:33.982Z,25.95
2023-03-21T18:09:01.123Z,22.15
2023-03-21T18:11:27.821Z,27.50
2023-03-21T18:14:06.502Z,27.23
2023-03-21T18:16:40.802Z,24.02
2023-03-21T18:19:07.321Z,22.13
2023-03-21T18:21:35.827Z,27.15
2023-03-21T18:24:02.527Z,26.27
2023-03-21T18:26:31.111Z,35.35
2023-03-21T18:29:47.331Z,34.67
2023-03-21T18:31:54.396Z,35.65
2023-03-21T18:34:30.829Z,34.63
2023-03-21T18:36:57.416Z,30.45
2023-03-21T18:39:23.845Z,33.35
2023-03-21T18:41:50.481Z,32.58
2023-03-21T18:44:19.376Z,34.60
2023-03-21T18:46:50.437Z,33.50
2023-03-21T18:52:04.861Z,35.08
2023-03-21T18:54:31.488Z,31.55
2023-03-21T18:59:44.842Z,31.63
2023-03-21T19:02:14.779Z,31.48
2023-03-21T19:04:41.629Z,31.92
2023-03-21T19:07:08.544Z,36.10
2023-03-21T19:09:58.203Z,32.78
2023-03-21T19:12:22.218Z,34.50
2023-03-21T19:14:48.912Z,35.15
2023-03-21T19:18:14.350Z,35.92
2023-03-21T19:20:01.955Z,30.23
2023-03-21T19:22:31.615Z,31.17
2023-03-21T19:24:58.650Z,32.78
2023-03-21T19:27:25.239Z,35.08
2023-03-21T19:30:08.378Z,35.38
2023-03-21T19:32:38.568Z,37.95
2023-03-21T19:35:05.538Z,34.10
2023-03-21T19:37:35.291Z,34.33
2023-03-21T19:40:03.508Z,34.47
2023-03-21T19:42:30.940Z,35.00
2023-03-21T19:44:57.780Z,38.40
2023-03-21T19:47:24.501Z,45.38
2023-03-21T19:52:40.482Z,35.38
2023-03-21T19:55:07.414Z,40.00
2023-03-21T19:57:34.870Z,35.13
2023-03-21T20:00:01.916Z,32.75
2023-03-21T20:02:37.006Z,37.75
2023-03-21T20:05:06.586Z,34.70
2023-03-21T20:07:33.184Z,41.20
2023-03-21T20:10:00.295Z,34.20
2023-03-21T20:12:27.553Z,34.20
2023-03-21T20:15:07.000Z,42.35
2023-03-21T20:17:38.849Z,31.45
2023-03-21T20:20:09.235Z,35.85
2023-03-21T20:23:05.079Z,32.90
2023-03-21T20:25:23.008Z,34.67
2023-03-21T20:28:09.276Z,33.80
2023-03-21T20:30:36.536Z,42.38
2023-03-21T20:33:03.100Z,38.58
2023-03-21T20:36:16.463Z,37.55
2023-03-21T20:38:20.456Z,38.22
2023-03-21T20:40:47.923Z,43.10
2023-03-21T20:43:50.801Z,44.97
2023-03-21T20:46:03.118Z,38.78
2023-03-21T20:48:29.736Z,33.60
2023-03-21T20:51:41.303Z,35.20
2023-03-21T20:53:53.795Z,40.25
2023-03-21T20:56:20.635Z,37.60
2023-03-21T20:59:01.960Z,38.67
2023-03-21T21:01:33.616Z,38.38
2023-03-21T21:04:00.710Z,41.17
2023-03-21T21:06:28.468Z,40.83
2023-03-21T21:08:55.826Z,36.58
2023-03-21T21:14:09.182Z,39.22
2023-03-21T21:16:35.598Z,42.05
2023-03-21T21:19:01.996Z,41.97
2023-03-21T21:21:28.753Z,37.20
2023-03-21T21:23:55.278Z,36.38
2023-03-21T21:26:21.665Z,31.48
2023-03-21T21:28:48.242Z,30.05
2023-03-21T21:31:19.838Z,29.65
2023-03-21T21:36:14.730Z,32.00
2023-03-21T21:38:41.170Z,34.25
2023-03-21T21:41:09.329Z,39.67
2023-03-21T21:43:35.947Z,37.67
2023-03-21T21:46:02.534Z,42.90
2023-03-21T21:48:28.977Z,45.03
2023-03-21T21:50:55.516Z,45.60
2023-03-21T21:53:22.650Z,43.28
2023-03-21T21:55:49.657Z,40.70
2023-03-21T21:58:18.472Z,45.53
2023-03-21T22:00:46.323Z,47.75
2023-03-21T22:03:14.504Z,46.80
2023-03-21T22:05:41.236Z,43.38
2023-03-21T22:08:09.641Z,55.05
2023-03-21T22:10:37.181Z,46.38
2023-03-21T22:13:03.914Z,51.00
2023-03-21T22:15:30.450Z,45.25
2023-03-21T22:17:56.985Z,49.40
2023-03-21T22:20:23.446Z,46.03
2023-03-21T22:22:49.946Z,52.35
2023-03-21T22:25:17.841Z,56.33
2023-03-21T22:27:44.356Z,42.25
2023-03-21T22:30:13.950Z,45.47
2023-03-21T22:32:41.078Z,48.13
2023-03-21T22:35:08.933Z,47.05
2023-03-21T22:37:37.694Z,52.47
2023-03-21T22:40:08.034Z,47.95
2023-03-21T22:42:35.225Z,45.80
2023-03-21T22:45:01.774Z,44.55
2023-03-21T22:47:28.544Z,44.90
2023-03-21T22:49:55.040Z,44.28
2023-03-21T22:52:21.436Z,42.17
2023-03-21T22:54:49.114Z,46.55
2023-03-21T22:57:16.683Z,47.75
2023-03-21T22:59:43.179Z,41.15
2023-03-21T23:02:09.723Z,47.15
2023-03-21T23:04:36.291Z,46.35
2023-03-21T23:07:03.316Z,46.92
2023-03-21T23:09:30.172Z,42.20
2023-03-21T23:11:56.579Z,45.13
2023-03-21T23:14:23.745Z,43.80
2023-03-21T23:16:52.578Z,45.90
2023-03-21T23:19:20.417Z,52.92
2023-03-21T23:21:47.786Z,45.55
2023-03-21T23:24:15.421Z,45.42
2023-03-21T23:26:42.539Z,57.38
2023-03-21T23:29:10.957Z,42.63
2023-03-21T23:31:37.701Z,38.92
2023-03-21T23:34:04.197Z,42.78
2023-03-21T23:36:31.077Z,46.28
2023-03-21T23:38:57.645Z,48.00
2023-03-21T23:41:25.645Z,48.97
2023-03-21T23:43:52.485Z,47.63
2023-03-21T23:46:19.926Z,46.05
2023-03-21T23:48:46.859Z,45.78
2023-03-21T23:51:16.119Z,47.03
2023-03-21T23:53:44.270Z,42.78
2023-03-21T23:56:19.222Z,41.22
2023-03-21T23:58:46.854Z,39.72
